sensor_id;sensor_type;location;lat;lon;timestamp;temperature;humidity
1800;DHT22;919;48.274;12.292;2023-04-29T00:00:27;11.20;99.90
1800;DHT22;919;48.274;12.292;2023-04-29T00:02:53;11.20;99.90
1800;DHT22;919;48.274;12.292;2023-04-29T00:05:21;11.20;99.90
1800;DHT22;919;48.274;12.292;2023-04-29T00:07:48;11.00;99.90
1800;DHT22;919;48.274;12.292;2023-04-29T00:10:15;10.90;99.90
1800;DHT22;919;48.274;12.292;2023-04-29T00:12:41;10.80;99.90
1800;DHT22;919;48.274;12.292;2023-04-29T00:15:09;10.80;99.90
1800;DHT22;919;48.274;12.292;2023-04-29T00:17:36;10.90;99.90
1800;DHT22;919;48.274;12.292;2023-04-29T00:20:04;11.00;99.90
1800;DHT22;919;48.274;12.292;2023-04-29T00:22:32;10.90;99.90
1800;DHT22;919;48.274;12.292;2023-04-29T00:24:58;10.90;99.90
1800;DHT22;919;48.274;12.292;2023-04-29T00:27:25;10.80;99.90
1800;DHT22;919;48.274;12.292;2023-04-29T00:29:52;10.80;99.90
1800;DHT22;919;48.274;12.292;2023-04-29T00:32:19;10.70;99.90
1800;DHT22;919;48.274;12.292;2023-04-29T00:34:46;10.70;99.90
1800;DHT22;919;48.274;12.292;2023-04-29T00:37:13;10.60;99.90
1800;DHT22;919;48.274;12.292;2023-04-29T00:39:41;10.60;99.90
1800;DHT22;919;48.274;12.292;2023-04-29T00:42:08;10.60;99.90
1800;DHT22;919;48.274;12.292;2023-04-29T00:44:35;10.70;99.90
1800;DHT22;919;48.274;12.292;2023-04-29T00:47:02;10.80;99.90
1800;DHT22;919;48.274;12.292;2023-04-29T00:49:29;11.00;99.90
1800;DHT22;919;48.274;12.292;2023-04-29T00:51:56;11.10;99.90
1800;DHT22;919;48.274;12.292;2023-04-29T00:54:24;11.20;99.90
1800;DHT22;919;48.274;12.292;2023-04-29T00:56:53;11.20;99.90
1800;DHT22;919;48.274;12.292;2023-04-29T00:59:21;11.20;99.90
1800;DHT22;919;48.274;12.292;2023-04-29T01:01:48;11.20;99.90
1800;DHT22;919;48.274;12.292;2023-04-29T01:04:15;11.20;99.90
1800;DHT22;919;48.274;12.292;2023-04-29T01:06:48;11.20;99.90
1800;DHT22;919;48.274;12.292;2023-04-29T01:09:26;11.20;99.90
1800;DHT22;919;48.274;12.292;2023-04-29T01:12:05;11.10;99.90
1800;DHT22;919;48.274;12.292;2023-04-29T01:14:34;11.10;99.90
1800;DHT22;919;48.274;12.292;2023-04-29T01:17:05;11.00;99.90
1800;DHT22;919;48.274;12.292;2023-04-29T01:19:43;10.90;99.90
1800;DHT22;919;48.274;12.292;2023-04-29T01:22:11;10.70;99.90
1800;DHT22;919;48.274;12.292;2023-04-29T01:24:40;10.60;99.90
1800;DHT22;919;48.274;12.292;2023-04-29T01:27:16;10.60;99.90
1800;DHT22;919;48.274;12.292;2023-04-29T01:29:51;10.50;99.90
1800;DHT22;919;48.274;12.292;2023-04-29T01:32:25;10.50;99.90
1800;DHT22;919;48.274;12.292;2023-04-29T01:35:07;10.50;99.90
1800;DHT22;919;48.274;12.292;2023-04-29T01:37:40;10.50;99.90
1800;DHT22;919;48.274;12.292;2023-04-29T01:40:16;10.40;99.90
1800;DHT22;919;48.274;12.292;2023-04-29T01:42:47;10.40;99.90
1800;DHT22;919;48.274;12.292;2023-04-29T01:45:17;10.30;99.90
1800;DHT22;919;48.274;12.292;2023-04-29T01:47:46;10.20;99.90
1800;DHT22;919;48.274;12.292;2023-04-29T01:50:14;10.10;99.90
1800;DHT22;919;48.274;12.292;2023-04-29T01:52:41;10.10;99.90
1800;DHT22;919;48.274;12.292;2023-04-29T01:55:08;9.90;99.90
1800;DHT22;919;48.274;12.292;2023-04-29T01:57:36;9.90;99.90
1800;DHT22;919;48.274;12.292;2023-04-29T02:00:04;9.80;99.90
1800;DHT22;919;48.274;12.292;2023-04-29T02:02:31;9.80;99.90
1800;DHT22;919;48.274;12.292;2023-04-29T02:04:57;9.80;99.90
1800;DHT22;919;48.274;12.292;2023-04-29T02:07:24;9.80;99.90
1800;DHT22;919;48.274;12.292;2023-04-29T02:09:51;9.80;99.90
1800;DHT22;919;48.274;12.292;2023-04-29T02:12:18;9.80;99.90
1800;DHT22;919;48.274;12.292;2023-04-29T02:14:46;9.80;99.90
1800;DHT22;919;48.274;12.292;2023-04-29T02:17:13;9.80;99.90
1800;DHT22;919;48.274;12.292;2023-04-29T02:19:39;9.80;99.90
1800;DHT22;919;48.274;12.292;2023-04-29T02:22:06;9.70;99.90
1800;DHT22;919;48.274;12.292;2023-04-29T02:24:33;9.70;99.90
1800;DHT22;919;48.274;12.292;2023-04-29T02:27:01;9.70;99.90
1800;DHT22;919;48.274;12.292;2023-04-29T02:29:30;9.70;99.90
1800;DHT22;919;48.274;12.292;2023-04-29T02:31:59;9.60;99.90
1800;DHT22;919;48.274;12.292;2023-04-29T02:34:26;9.60;99.90
1800;DHT22;919;48.274;12.292;2023-04-29T02:36:53;9.60;99.90
1800;DHT22;919;48.274;12.292;2023-04-29T02:39:20;9.50;99.90
1800;DHT22;919;48.274;12.292;2023-04-29T02:41:47;9.50;99.90
1800;DHT22;919;48.274;12.292;2023-04-29T02:44:14;9.50;99.90
1800;DHT22;919;48.274;12.292;2023-04-29T02:46:40;9.40;99.90
1800;DHT22;919;48.274;12.292;2023-04-29T02:49:11;9.30;99.90
1800;DHT22;919;48.274;12.292;2023-04-29T02:51:38;9.30;99.90
1800;DHT22;919;48.274;12.292;2023-04-29T02:54:05;9.30;99.90
1800;DHT22;919;48.274;12.292;2023-04-29T02:56:32;9.30;99.90
1800;DHT22;919;48.274;12.292;2023-04-29T02:58:59;9.30;99.90
1800;DHT22;919;48.274;12.292;2023-04-29T03:01:25;9.40;99.90
1800;DHT22;919;48.274;12.292;2023-04-29T03:03:52;9.30;99.90
1800;DHT22;919;48.274;12.292;2023-04-29T03:06:20;9.30;99.90
1800;DHT22;919;48.274;12.292;2023-04-29T03:08:47;9.30;99.90
1800;DHT22;919;48.274;12.292;2023-04-29T03:11:13;9.30;99.90
1800;DHT22;919;48.274;12.292;2023-04-29T03:13:40;9.30;99.90
1800;DHT22;919;48.274;12.292;2023-04-29T03:16:07;9.20;99.90
1800;DHT22;919;48.274;12.292;2023-04-29T03:18:34;9.20;99.90
1800;DHT22;919;48.274;12.292;2023-04-29T03:21:00;9.30;99.90
1800;DHT22;919;48.274;12.292;2023-04-29T03:23:30;9.30;99.90
1800;DHT22;919;48.274;12.292;2023-04-29T03:25:57;9.20;99.90
1800;DHT22;919;48.274;12.292;2023-04-29T03:28:25;9.20;99.90
1800;DHT22;919;48.274;12.292;2023-04-29T03:30:51;9.20;99.90
1800;DHT22;919;48.274;12.292;2023-04-29T03:33:18;9.20;99.90
1800;DHT22;919;48.274;12.292;2023-04-29T03:35:45;9.10;99.90
1800;DHT22;919;48.274;12.292;2023-04-29T03:38:11;9.00;99.90
1800;DHT22;919;48.274;12.292;2023-04-29T03:40:39;8.90;99.90
1800;DHT22;919;48.274;12.292;2023-04-29T03:43:06;8.90;99.90
1800;DHT22;919;48.274;12.292;2023-04-29T03:45:33;8.90;99.90
1800;DHT22;919;48.274;12.292;2023-04-29T03:48:00;8.90;99.90
1800;DHT22;919;48.274;12.292;2023-04-29T03:50:27;8.90;99.90
1800;DHT22;919;48.274;12.292;2023-04-29T03:52:54;9.00;99.90
1800;DHT22;919;48.274;12.292;2023-04-29T03:55:22;9.10;99.90
1800;DHT22;919;48.274;12.292;2023-04-29T03:57:50;9.10;99.90
1800;DHT22;919;48.274;12.292;2023-04-29T04:00:17;9.20;99.90
1800;DHT22;919;48.274;12.292;2023-04-29T04:02:44;9.20;99.90
1800;DHT22;919;48.274;12.292;2023-04-29T04:05:11;9.20;99.90
1800;DHT22;919;48.274;12.292;2023-04-29T04:07:37;9.20;99.90
1800;DHT22;919;48.274;12.292;2023-04-29T04:10:05;9.20;99.90
1800;DHT22;919;48.274;12.292;2023-04-29T04:12:32;9.10;99.90
1800;DHT22;919;48.274;12.292;2023-04-29T04:15:00;9.20;99.90
1800;DHT22;919;48.274;12.292;2023-04-29T04:17:28;9.20;99.90
1800;DHT22;919;48.274;12.292;2023-04-29T04:19:55;9.20;99.90
1800;DHT22;919;48.274;12.292;2023-04-29T04:22:21;9.20;99.90
1800;DHT22;919;48.274;12.292;2023-04-29T04:24:48;9.20;99.90
1800;DHT22;919;48.274;12.292;2023-04-29T04:27:15;9.30;99.90
1800;DHT22;919;48.274;12.292;2023-04-29T04:29:41;9.30;99.90
1800;DHT22;919;48.274;12.292;2023-04-29T04:32:09;9.40;99.90
1800;DHT22;919;48.274;12.292;2023-04-29T04:34:36;9.50;99.90
1800;DHT22;919;48.274;12.292;2023-04-29T04:37:03;9.50;99.90
1800;DHT22;919;48.274;12.292;2023-04-29T04:39:30;9.60;99.90
1800;DHT22;919;48.274;12.292;2023-04-29T04:41:57;9.60;99.90
1800;DHT22;919;48.274;12.292;2023-04-29T04:44:24;9.60;99.90
1800;DHT22;919;48.274;12.292;2023-04-29T04:46:51;9.60;99.90
1800;DHT22;919;48.274;12.292;2023-04-29T04:49:19;9.70;99.90
1800;DHT22;919;48.274;12.292;2023-04-29T04:51:45;9.70;99.90
1800;DHT22;919;48.274;12.292;2023-04-29T04:54:12;9.70;99.90
1800;DHT22;919;48.274;12.292;2023-04-29T04:56:39;9.70;99.90
1800;DHT22;919;48.274;12.292;2023-04-29T04:59:05;9.70;99.90
1800;DHT22;919;48.274;12.292;2023-04-29T05:01:32;9.70;99.90
1800;DHT22;919;48.274;12.292;2023-04-29T05:03:59;9.80;99.90
1800;DHT22;919;48.274;12.292;2023-04-29T05:06:28;9.80;99.90
1800;DHT22;919;48.274;12.292;2023-04-29T05:08:55;9.90;99.90
1800;DHT22;919;48.274;12.292;2023-04-29T05:11:21;9.90;99.90
1800;DHT22;919;48.274;12.292;2023-04-29T05:13:48;10.00;99.90
1800;DHT22;919;48.274;12.292;2023-04-29T05:16:15;10.00;99.90
1800;DHT22;919;48.274;12.292;2023-04-29T05:18:42;10.00;99.90
1800;DHT22;919;48.274;12.292;2023-04-29T05:21:10;10.10;99.90
1800;DHT22;919;48.274;12.292;2023-04-29T05:23:38;10.20;99.90
1800;DHT22;919;48.274;12.292;2023-04-29T05:26:05;10.20;99.90
1800;DHT22;919;48.274;12.292;2023-04-29T05:28:31;10.30;99.90
1800;DHT22;919;48.274;12.292;2023-04-29T05:30:58;10.40;99.90
1800;DHT22;919;48.274;12.292;2023-04-29T05:33:25;10.60;99.90
1800;DHT22;919;48.274;12.292;2023-04-29T05:35:51;10.70;99.90
1800;DHT22;919;48.274;12.292;2023-04-29T05:38:18;10.80;99.90
1800;DHT22;919;48.274;12.292;2023-04-29T05:40:46;10.90;99.90
1800;DHT22;919;48.274;12.292;2023-04-29T05:43:14;11.00;99.90
1800;DHT22;919;48.274;12.292;2023-04-29T05:45:41;11.10;99.90
1800;DHT22;919;48.274;12.292;2023-04-29T05:48:07;11.20;99.90
1800;DHT22;919;48.274;12.292;2023-04-29T05:50:34;11.40;99.90
1800;DHT22;919;48.274;12.292;2023-04-29T05:53:01;11.50;99.90
1800;DHT22;919;48.274;12.292;2023-04-29T05:55:29;11.60;99.90
1800;DHT22;919;48.274;12.292;2023-04-29T05:57:57;11.80;99.90
1800;DHT22;919;48.274;12.292;2023-04-29T06:00:23;12.00;99.90
1800;DHT22;919;48.274;12.292;2023-04-29T06:02:50;12.20;99.90
1800;DHT22;919;48.274;12.292;2023-04-29T06:05:17;12.40;99.90
1800;DHT22;919;48.274;12.292;2023-04-29T06:07:44;12.50;99.90
1800;DHT22;919;48.274;12.292;2023-04-29T06:10:11;12.70;99.90
1800;DHT22;919;48.274;12.292;2023-04-29T06:12:37;12.80;99.90
1800;DHT22;919;48.274;12.292;2023-04-29T06:15:06;13.00;99.90
1800;DHT22;919;48.274;12.292;2023-04-29T06:17:33;13.10;99.90
1800;DHT22;919;48.274;12.292;2023-04-29T06:20:00;13.30;99.90
1800;DHT22;919;48.274;12.292;2023-04-29T06:22:27;13.50;99.90
1800;DHT22;919;48.274;12.292;2023-04-29T06:24:54;13.40;99.90
1800;DHT22;919;48.274;12.292;2023-04-29T06:27:21;13.50;99.90
1800;DHT22;919;48.274;12.292;2023-04-29T06:29:47;13.60;99.90
1800;DHT22;919;48.274;12.292;2023-04-29T06:32:15;13.60;99.90
1800;DHT22;919;48.274;12.292;2023-04-29T06:34:42;13.70;99.90
1800;DHT22;919;48.274;12.292;2023-04-29T06:37:10;13.80;99.90
1800;DHT22;919;48.274;12.292;2023-04-29T06:39:36;13.90;99.90
1800;DHT22;919;48.274;12.292;2023-04-29T06:42:03;14.00;99.90
1800;DHT22;919;48.274;12.292;2023-04-29T06:44:30;14.20;99.90
1800;DHT22;919;48.274;12.292;2023-04-29T06:46:57;14.30;99.90
1800;DHT22;919;48.274;12.292;2023-04-29T06:49:25;14.40;99.90
1800;DHT22;919;48.274;12.292;2023-04-29T06:51:51;14.60;99.90
1800;DHT22;919;48.274;12.292;2023-04-29T06:54:18;14.60;99.90
1800;DHT22;919;48.274;12.292;2023-04-29T06:56:45;14.60;99.90
1800;DHT22;919;48.274;12.292;2023-04-29T06:59:12;14.50;99.90
1800;DHT22;919;48.274;12.292;2023-04-29T07:01:39;14.60;99.90
1800;DHT22;919;48.274;12.292;2023-04-29T07:04:06;14.70;99.90
1800;DHT22;919;48.274;12.292;2023-04-29T07:06:34;14.70;99.90
1800;DHT22;919;48.274;12.292;2023-04-29T07:09:01;14.70;99.90
1800;DHT22;919;48.274;12.292;2023-04-29T07:11:28;14.80;99.90
1800;DHT22;919;48.274;12.292;2023-04-29T07:13:55;14.80;99.90
1800;DHT22;919;48.274;12.292;2023-04-29T07:16:21;14.90;99.90
1800;DHT22;919;48.274;12.292;2023-04-29T07:18:50;15.00;99.90
1800;DHT22;919;48.274;12.292;2023-04-29T07:21:17;15.10;99.90
1800;DHT22;919;48.274;12.292;2023-04-29T07:23:45;15.20;99.90
1800;DHT22;919;48.274;12.292;2023-04-29T07:26:13;15.20;99.90
1800;DHT22;919;48.274;12.292;2023-04-29T07:28:40;15.20;99.90
1800;DHT22;919;48.274;12.292;2023-04-29T07:31:07;15.10;99.90
1800;DHT22;919;48.274;12.292;2023-04-29T07:33:35;15.10;99.90
1800;DHT22;919;48.274;12.292;2023-04-29T07:36:02;15.30;99.90
1800;DHT22;919;48.274;12.292;2023-04-29T07:38:29;15.40;99.90
1800;DHT22;919;48.274;12.292;2023-04-29T07:40:57;15.40;99.90
1800;DHT22;919;48.274;12.292;2023-04-29T07:43:24;15.60;99.90
1800;DHT22;919;48.274;12.292;2023-04-29T07:45:50;15.60;99.90
1800;DHT22;919;48.274;12.292;2023-04-29T07:48:17;15.80;99.90
1800;DHT22;919;48.274;12.292;2023-04-29T07:50:45;15.90;99.90
1800;DHT22;919;48.274;12.292;2023-04-29T07:53:12;16.00;99.90
1800;DHT22;919;48.274;12.292;2023-04-29T07:55:40;16.00;99.90
1800;DHT22;919;48.274;12.292;2023-04-29T07:58:08;16.20;99.90
1800;DHT22;919;48.274;12.292;2023-04-29T08:00:34;16.30;99.90
1800;DHT22;919;48.274;12.292;2023-04-29T08:03:01;16.30;99.90
1800;DHT22;919;48.274;12.292;2023-04-29T08:05:28;16.30;99.90
1800;DHT22;919;48.274;12.292;2023-04-29T08:07:55;16.40;99.90
1800;DHT22;919;48.274;12.292;2023-04-29T08:10:21;16.40;99.90
1800;DHT22;919;48.274;12.292;2023-04-29T08:12:48;16.40;99.90
1800;DHT22;919;48.274;12.292;2023-04-29T08:15:16;16.30;99.90
1800;DHT22;919;48.274;12.292;2023-04-29T08:17:44;16.10;99.90
1800;DHT22;919;48.274;12.292;2023-04-29T08:20:11;16.10;99.90
1800;DHT22;919;48.274;12.292;2023-04-29T08:22:39;16.20;99.90
1800;DHT22;919;48.274;12.292;2023-04-29T08:25:07;16.20;99.90
1800;DHT22;919;48.274;12.292;2023-04-29T08:27:34;16.30;99.90
1800;DHT22;919;48.274;12.292;2023-04-29T08:30:01;16.20;99.90
1800;DHT22;919;48.274;12.292;2023-04-29T08:32:29;16.10;99.90
1800;DHT22;919;48.274;12.292;2023-04-29T08:34:56;16.10;99.90
1800;DHT22;919;48.274;12.292;2023-04-29T08:37:23;16.30;99.90
1800;DHT22;919;48.274;12.292;2023-04-29T08:39:49;16.40;99.90
1800;DHT22;919;48.274;12.292;2023-04-29T08:42:21;16.60;99.90
1800;DHT22;919;48.274;12.292;2023-04-29T08:44:51;16.80;99.90
1800;DHT22;919;48.274;12.292;2023-04-29T08:47:19;16.80;99.90
1800;DHT22;919;48.274;12.292;2023-04-29T08:49:47;16.90;99.90
1800;DHT22;919;48.274;12.292;2023-04-29T08:52:14;16.80;99.90
1800;DHT22;919;48.274;12.292;2023-04-29T08:54:40;16.80;99.90
1800;DHT22;919;48.274;12.292;2023-04-29T08:57:09;16.80;99.90
1800;DHT22;919;48.274;12.292;2023-04-29T08:59:37;16.60;99.90
1800;DHT22;919;48.274;12.292;2023-04-29T09:02:05;16.40;99.90
1800;DHT22;919;48.274;12.292;2023-04-29T09:04:42;16.40;99.90
1800;DHT22;919;48.274;12.292;2023-04-29T09:07:14;16.60;99.90
1800;DHT22;919;48.274;12.292;2023-04-29T09:09:42;16.80;99.90
1800;DHT22;919;48.274;12.292;2023-04-29T09:12:09;17.20;99.90
1800;DHT22;919;48.274;12.292;2023-04-29T09:14:35;17.50;99.90
1800;DHT22;919;48.274;12.292;2023-04-29T09:17:02;17.80;99.90
1800;DHT22;919;48.274;12.292;2023-04-29T09:19:30;18.00;99.90
1800;DHT22;919;48.274;12.292;2023-04-29T09:21:57;18.10;99.90
1800;DHT22;919;48.274;12.292;2023-04-29T09:24:26;18.00;99.90
1800;DHT22;919;48.274;12.292;2023-04-29T09:26:53;18.30;99.90
1800;DHT22;919;48.274;12.292;2023-04-29T09:29:20;18.50;99.90
1800;DHT22;919;48.274;12.292;2023-04-29T09:31:48;18.60;99.90
1800;DHT22;919;48.274;12.292;2023-04-29T09:34:15;18.80;99.90
1800;DHT22;919;48.274;12.292;2023-04-29T09:36:43;18.50;99.90
1800;DHT22;919;48.274;12.292;2023-04-29T09:39:12;18.40;99.90
1800;DHT22;919;48.274;12.292;2023-04-29T09:41:56;18.20;99.90
1800;DHT22;919;48.274;12.292;2023-04-29T09:44:24;18.00;99.90
1800;DHT22;919;48.274;12.292;2023-04-29T09:46:55;17.80;99.90
1800;DHT22;919;48.274;12.292;2023-04-29T09:49:23;17.40;99.90
1800;DHT22;919;48.274;12.292;2023-04-29T09:51:54;17.20;99.90
1800;DHT22;919;48.274;12.292;2023-04-29T09:54:22;17.10;99.90
1800;DHT22;919;48.274;12.292;2023-04-29T09:56:51;17.40;99.90
1800;DHT22;919;48.274;12.292;2023-04-29T09:59:19;17.90;99.90
1800;DHT22;919;48.274;12.292;2023-04-29T10:01:50;18.20;99.90
1800;DHT22;919;48.274;12.292;2023-04-29T10:04:18;18.50;99.90
1800;DHT22;919;48.274;12.292;2023-04-29T10:06:48;18.50;99.90
1800;DHT22;919;48.274;12.292;2023-04-29T10:09:16;18.60;99.90
1800;DHT22;919;48.274;12.292;2023-04-29T10:11:44;18.70;99.90
1800;DHT22;919;48.274;12.292;2023-04-29T10:14:14;18.60;99.90
1800;DHT22;919;48.274;12.292;2023-04-29T10:16:45;18.50;99.90
1800;DHT22;919;48.274;12.292;2023-04-29T10:19:18;18.20;99.90
1800;DHT22;919;48.274;12.292;2023-04-29T10:21:52;17.70;99.90
1800;DHT22;919;48.274;12.292;2023-04-29T10:24:21;17.30;99.90
1800;DHT22;919;48.274;12.292;2023-04-29T10:26:50;17.30;99.90
1800;DHT22;919;48.274;12.292;2023-04-29T10:29:18;17.50;99.90
1800;DHT22;919;48.274;12.292;2023-04-29T10:31:47;17.80;99.90
1800;DHT22;919;48.274;12.292;2023-04-29T10:34:16;18.20;99.90
1800;DHT22;919;48.274;12.292;2023-04-29T10:36:44;18.50;99.90
1800;DHT22;919;48.274;12.292;2023-04-29T10:39:17;18.90;99.90
1800;DHT22;919;48.274;12.292;2023-04-29T10:41:46;19.20;99.90
1800;DHT22;919;48.274;12.292;2023-04-29T10:44:14;19.50;99.90
1800;DHT22;919;48.274;12.292;2023-04-29T10:46:42;19.80;99.90
1800;DHT22;919;48.274;12.292;2023-04-29T10:49:10;20.00;99.90
1800;DHT22;919;48.274;12.292;2023-04-29T10:51:39;19.60;99.90
1800;DHT22;919;48.274;12.292;2023-04-29T10:54:08;19.20;99.90
1800;DHT22;919;48.274;12.292;2023-04-29T10:56:42;18.90;99.90
1800;DHT22;919;48.274;12.292;2023-04-29T10:59:10;19.00;99.90
1800;DHT22;919;48.274;12.292;2023-04-29T11:01:47;18.90;99.90
1800;DHT22;919;48.274;12.292;2023-04-29T11:04:15;18.50;99.90
1800;DHT22;919;48.274;12.292;2023-04-29T11:06:44;18.40;99.90
1800;DHT22;919;48.274;12.292;2023-04-29T11:09:14;18.30;99.90
1800;DHT22;919;48.274;12.292;2023-04-29T11:11:59;18.40;99.90
1800;DHT22;919;48.274;12.292;2023-04-29T11:14:33;18.40;99.90
1800;DHT22;919;48.274;12.292;2023-04-29T11:17:07;18.40;99.90
1800;DHT22;919;48.274;12.292;2023-04-29T11:19:36;18.50;99.90
1800;DHT22;919;48.274;12.292;2023-04-29T11:22:11;18.70;99.90
1800;DHT22;919;48.274;12.292;2023-04-29T11:24:49;19.00;99.90
1800;DHT22;919;48.274;12.292;2023-04-29T11:27:17;18.90;99.90
1800;DHT22;919;48.274;12.292;2023-04-29T11:29:45;18.60;99.90
1800;DHT22;919;48.274;12.292;2023-04-29T11:32:13;18.40;99.90
1800;DHT22;919;48.274;12.292;2023-04-29T11:34:40;18.60;99.90
1800;DHT22;919;48.274;12.292;2023-04-29T11:37:08;18.70;99.90
1800;DHT22;919;48.274;12.292;2023-04-29T11:39:35;18.80;99.90
1800;DHT22;919;48.274;12.292;2023-04-29T11:42:03;19.10;99.90
1800;DHT22;919;48.274;12.292;2023-04-29T11:44:30;19.50;99.90
1800;DHT22;919;48.274;12.292;2023-04-29T11:47:01;19.80;99.90
1800;DHT22;919;48.274;12.292;2023-04-29T11:49:30;19.70;99.90
1800;DHT22;919;48.274;12.292;2023-04-29T11:51:57;19.50;99.90
1800;DHT22;919;48.274;12.292;2023-04-29T11:54:25;19.80;99.90
1800;DHT22;919;48.274;12.292;2023-04-29T11:56:52;20.10;99.90
1800;DHT22;919;48.274;12.292;2023-04-29T11:59:19;20.30;99.90
1800;DHT22;919;48.274;12.292;2023-04-29T12:01:47;20.00;99.90
1800;DHT22;919;48.274;12.292;2023-04-29T12:04:13;20.10;99.90
1800;DHT22;919;48.274;12.292;2023-04-29T12:06:42;20.10;99.90
1800;DHT22;919;48.274;12.292;2023-04-29T12:09:09;20.20;99.90
1800;DHT22;919;48.274;12.292;2023-04-29T12:11:36;20.50;99.90
1800;DHT22;919;48.274;12.292;2023-04-29T12:14:03;20.60;99.90
1800;DHT22;919;48.274;12.292;2023-04-29T12:16:31;20.30;99.90
1800;DHT22;919;48.274;12.292;2023-04-29T12:18:58;20.00;99.90
1800;DHT22;919;48.274;12.292;2023-04-29T12:21:25;19.80;99.90
1800;DHT22;919;48.274;12.292;2023-04-29T12:23:58;19.60;99.90
1800;DHT22;919;48.274;12.292;2023-04-29T12:26:27;19.90;99.90
1800;DHT22;919;48.274;12.292;2023-04-29T12:28:56;20.20;99.90
1800;DHT22;919;48.274;12.292;2023-04-29T12:31:23;20.30;99.90
1800;DHT22;919;48.274;12.292;2023-04-29T12:33:53;20.30;99.90
1800;DHT22;919;48.274;12.292;2023-04-29T12:36:20;20.10;99.90
1800;DHT22;919;48.274;12.292;2023-04-29T12:38:47;19.70;99.90
1800;DHT22;919;48.274;12.292;2023-04-29T12:41:15;19.50;99.90
1800;DHT22;919;48.274;12.292;2023-04-29T12:43:43;19.80;99.90
1800;DHT22;919;48.274;12.292;2023-04-29T12:46:10;20.20;99.90
1800;DHT22;919;48.274;12.292;2023-04-29T12:48:39;20.00;99.90
1800;DHT22;919;48.274;12.292;2023-04-29T12:51:08;19.40;99.90
1800;DHT22;919;48.274;12.292;2023-04-29T12:53:36;19.50;99.90
1800;DHT22;919;48.274;12.292;2023-04-29T12:56:04;19.70;99.90
1800;DHT22;919;48.274;12.292;2023-04-29T12:58:32;19.40;99.90
1800;DHT22;919;48.274;12.292;2023-04-29T13:00:59;19.70;99.90
1800;DHT22;919;48.274;12.292;2023-04-29T13:03:26;19.90;99.90
1800;DHT22;919;48.274;12.292;2023-04-29T13:05:53;20.10;99.90
1800;DHT22;919;48.274;12.292;2023-04-29T13:08:20;20.10;99.90
1800;DHT22;919;48.274;12.292;2023-04-29T13:10:47;20.00;99.90
1800;DHT22;919;48.274;12.292;2023-04-29T13:13:14;20.20;99.90
1800;DHT22;919;48.274;12.292;2023-04-29T13:15:42;20.40;99.90
1800;DHT22;919;48.274;12.292;2023-04-29T13:18:09;20.60;99.90
1800;DHT22;919;48.274;12.292;2023-04-29T13:20:35;20.60;99.90
1800;DHT22;919;48.274;12.292;2023-04-29T13:23:02;20.50;99.90
1800;DHT22;919;48.274;12.292;2023-04-29T13:25:29;20.30;99.90
1800;DHT22;919;48.274;12.292;2023-04-29T13:27:56;20.20;99.90
1800;DHT22;919;48.274;12.292;2023-04-29T13:30:23;20.40;99.90
1800;DHT22;919;48.274;12.292;2023-04-29T13:32:51;20.50;99.90
1800;DHT22;919;48.274;12.292;2023-04-29T13:35:17;20.60;99.90
1800;DHT22;919;48.274;12.292;2023-04-29T13:37:44;20.70;99.90
1800;DHT22;919;48.274;12.292;2023-04-29T13:40:12;20.90;99.90
1800;DHT22;919;48.274;12.292;2023-04-29T13:42:39;20.70;99.90
1800;DHT22;919;48.274;12.292;2023-04-29T13:45:06;20.20;99.90
1800;DHT22;919;48.274;12.292;2023-04-29T13:47:33;20.20;99.90
1800;DHT22;919;48.274;12.292;2023-04-29T13:50:02;20.00;99.90
1800;DHT22;919;48.274;12.292;2023-04-29T13:52:28;19.90;99.90
1800;DHT22;919;48.274;12.292;2023-04-29T13:54:55;20.10;99.90
1800;DHT22;919;48.274;12.292;2023-04-29T13:57:22;20.50;99.90
1800;DHT22;919;48.274;12.292;2023-04-29T13:59:52;20.80;99.90
1800;DHT22;919;48.274;12.292;2023-04-29T14:02:19;20.90;99.90
1800;DHT22;919;48.274;12.292;2023-04-29T14:04:46;20.80;99.90
1800;DHT22;919;48.274;12.292;2023-04-29T14:07:14;20.70;99.90
1800;DHT22;919;48.274;12.292;2023-04-29T14:09:41;20.40;99.90
1800;DHT22;919;48.274;12.292;2023-04-29T14:12:08;20.10;99.90
1800;DHT22;919;48.274;12.292;2023-04-29T14:14:35;20.00;99.90
1800;DHT22;919;48.274;12.292;2023-04-29T14:17:02;20.00;99.90
1800;DHT22;919;48.274;12.292;2023-04-29T14:19:29;20.00;99.90
1800;DHT22;919;48.274;12.292;2023-04-29T14:21:56;20.00;99.90
1800;DHT22;919;48.274;12.292;2023-04-29T14:24:24;20.20;99.90
1800;DHT22;919;48.274;12.292;2023-04-29T14:26:53;20.10;99.90
1800;DHT22;919;48.274;12.292;2023-04-29T14:29:22;20.00;99.90
1800;DHT22;919;48.274;12.292;2023-04-29T14:31:53;19.80;99.90
1800;DHT22;919;48.274;12.292;2023-04-29T14:34:21;20.00;99.90
1800;DHT22;919;48.274;12.292;2023-04-29T14:36:48;20.40;99.90
1800;DHT22;919;48.274;12.292;2023-04-29T14:39:15;20.80;99.90
1800;DHT22;919;48.274;12.292;2023-04-29T14:41:43;21.00;99.90
1800;DHT22;919;48.274;12.292;2023-04-29T14:44:09;20.50;99.90
1800;DHT22;919;48.274;12.292;2023-04-29T14:46:36;20.10;99.90
1800;DHT22;919;48.274;12.292;2023-04-29T14:49:03;19.90;99.90
1800;DHT22;919;48.274;12.292;2023-04-29T14:51:30;20.00;99.90
1800;DHT22;919;48.274;12.292;2023-04-29T14:53:57;19.80;99.90
1800;DHT22;919;48.274;12.292;2023-04-29T14:56:24;19.60;99.90
1800;DHT22;919;48.274;12.292;2023-04-29T14:58:52;19.60;99.90
1800;DHT22;919;48.274;12.292;2023-04-29T15:01:19;19.40;99.90
1800;DHT22;919;48.274;12.292;2023-04-29T15:03:45;19.20;99.90
1800;DHT22;919;48.274;12.292;2023-04-29T15:06:12;19.00;99.90
1800;DHT22;919;48.274;12.292;2023-04-29T15:08:39;18.80;99.90
1800;DHT22;919;48.274;12.292;2023-04-29T15:11:06;18.70;99.90
1800;DHT22;919;48.274;12.292;2023-04-29T15:13:33;18.50;99.90
1800;DHT22;919;48.274;12.292;2023-04-29T15:16:01;18.80;99.90
1800;DHT22;919;48.274;12.292;2023-04-29T15:18:29;19.20;99.90
1800;DHT22;919;48.274;12.292;2023-04-29T15:20:56;19.40;99.90
1800;DHT22;919;48.274;12.292;2023-04-29T15:23:23;19.20;99.90
1800;DHT22;919;48.274;12.292;2023-04-29T15:25:50;18.80;99.90
1800;DHT22;919;48.274;12.292;2023-04-29T15:28:17;18.40;99.90
1800;DHT22;919;48.274;12.292;2023-04-29T15:30:44;18.30;99.90
1800;DHT22;919;48.274;12.292;2023-04-29T15:33:12;18.20;99.90
1800;DHT22;919;48.274;12.292;2023-04-29T15:35:38;18.50;99.90
1800;DHT22;919;48.274;12.292;2023-04-29T15:38:05;18.70;99.90
1800;DHT22;919;48.274;12.292;2023-04-29T15:40:32;18.70;99.90
1800;DHT22;919;48.274;12.292;2023-04-29T15:42:59;18.60;99.90
1800;DHT22;919;48.274;12.292;2023-04-29T15:45:26;18.50;99.90
1800;DHT22;919;48.274;12.292;2023-04-29T15:47:52;18.40;99.90
1800;DHT22;919;48.274;12.292;2023-04-29T15:50:20;18.40;99.90
1800;DHT22;919;48.274;12.292;2023-04-29T15:52:47;18.60;99.90
1800;DHT22;919;48.274;12.292;2023-04-29T15:55:16;18.50;99.90
1800;DHT22;919;48.274;12.292;2023-04-29T15:57:43;18.40;99.90
1800;DHT22;919;48.274;12.292;2023-04-29T16:00:11;18.20;99.90
1800;DHT22;919;48.274;12.292;2023-04-29T16:02:38;18.10;99.90
1800;DHT22;919;48.274;12.292;2023-04-29T16:05:05;18.10;99.90
1800;DHT22;919;48.274;12.292;2023-04-29T16:07:33;18.10;99.90